North Sterling, Connecticut
Current Conditions -  °F | °C
As of 2:52 PM on Sunday 23 Nov 2014 (Local Time) from KIJD Reporting Station
Few Clouds Few Clouds  
Wind Chill: 61°   Ceiling: Unl
Heat Index: 61°   Visibility: 10mi
Dew Point: 31°   Wind: 5mph
Humidity: 32%   Direction: 180°S
Pressure: 30.11"   Gusts: NA
Location:  41.732°N, 71.8171°W
Report Text: KIJD 231952Z AUTO 18004KT 10SM FEW085 16/M01 A3011 RMK AO2 SLP196 T01611006
Loading
Personal Weather Stations






























Interactive Weather Map New forecast layout! Learn more

10-Day Weather Forecast

Advertisements
Track Severe Weather on mobile